• Join FlightAware (Why Join?)
  • Login
  • US Flag 
12:42AM EDT


 

Airport Tracker/Info


-or-


 

Live Flight TrackerFlight Track Log ✈ EJA357 ✈ 14-Oct-2013 ✈ KHPN - KBOS

Flight Track Log - Related Links

Times and Time Zones

All times are in EDT time to prevent confusion due to time zone crossing. See the EJA357 flight status page for this flight to view local times or setup timezone preferences in your user account.

Time Position Orientation Groundspeed Altitude Reporting Facility
EDT Latitude Longitude Course Direction KTS MPH feet Rate Location/Type
02:34PM 41.0333 -73.7333 304° West 207 238 2,400  Level New York TRACON
02:35PM 41.0667 -73.8000 304° West 234 269 4,500 3,180 Climbing New York TRACON
02:36PM 41.1167 -73.8833 309° West 279 321 8,800 2,400 Climbing New York TRACON
02:39PM 41.2264 -73.6875 53° Northeast 313 360 13,000 1,200 Climbing Boston Center
02:40PM 41.2653 -73.5475 70° East 352 405 13,000  Level Boston Center
02:41PM 41.2936 -73.4375 71° East 363 418 13,000  Level Boston Center
02:42PM 41.3300 -73.2942 71° East 363 418 13,000  Level Boston Center
02:43PM 41.3558 -73.1783 73° East 358 412 13,000  Level Boston Center
02:44PM 41.3861 -73.0322 75° East 365 420 13,000  Level Boston Center
02:45PM 41.4117 -72.9161 74° East 359 413 13,000  Level Boston Center
02:46PM 41.4433 -72.7725 74° East 359 413 13,000  Level Boston Center
02:47PM 41.4686 -72.6561 74° East 359 413 13,000  Level Boston Center
02:48PM 41.5000 -72.5122 74° East 364 419 13,000  Level Boston Center
02:49PM 41.5272 -72.3792 75° East 359 413 13,000  Level Boston Center
02:50PM 41.5603 -72.2625 69° East 370 426 13,100  Climbing Boston Center
02:51PM 41.5956 -72.1236 71° East 365 420 13,100  Level Boston Center
02:52PM 41.6242 -72.0097 71° East 365 420 13,100  Level Boston Center
02:53PM 41.6611 -71.8706 70° East 365 420 13,100  Level Boston Center
02:54PM 41.6917 -71.7533 71° East 370 426 13,100  Level Boston Center
02:55PM 41.7283 -71.6083 71° East 370 426 13,100  Level Boston Center
02:56PM 41.7647 -71.4772 70° East 370 426 13,100  Level Boston Center
02:57PM 41.7931 -71.3708 70° East 352 405 13,100 -300 Level Boston Center
02:58PM 41.8250 -71.2394 72° East 331 381 12,600 -1,020 Descending Boston Center
02:59PM 41.8531 -71.1358 70° East 326 375 11,100 -1,140 Descending Boston Center
02:59PM 41.8833 -71.0667 60° Northeast 315 362 11,000 -120 Descending KA90
03:00PM 41.9167 -70.9667 66° East 318 366 11,000  Level KA90
03:01PM 41.9667 -70.8667 56° Northeast 320 368 11,000 -120 Level KA90
03:02PM 41.9847 -70.8314 55° Northeast 314 361 10,900 -540 Descending Boston Center
03:03PM 42.0333 -70.7322 57° Northeast 314 361 10,200 -1,200 Descending Boston Center
03:04PM 42.0883 -70.6525 47° Northeast 296 341 8,600 -1,500 Descending Boston Center
03:05PM 42.1522 -70.6114 26° Northeast 262 302 7,300 -1,440 Descending Boston Center
03:06PM 42.2169 -70.6181 356° North 234 269 5,800 -1,560 Descending Boston Center
03:07PM 42.2717 -70.6556 333° Northwest 215 247 4,200 -1,500 Descending Boston Center
03:08PM 42.3286 -70.6906 336° Northwest 215 247 2,900 -660 Descending Boston Center
03:09PM 42.3728 -70.7258 329° Northwest 210 242 2,900 -180 Level Boston Center
03:10PM 42.3967 -70.7814 300° West 184 212 2,600 -600 Descending Boston Center
03:12PM 42.3667 -70.9167 253° West 104 120 1,000 -660 Descending KA90
03:13PM 42.3667 -70.9667 270° West 124 143 400 -600 Descending KA90